Time;durP1;ratioP1;P1;durP2;ratioP2;P2;SDS_P1;SDS_P2;PMS_P1;PMS_P2;Temp;Humidity;BMP_temperature;BMP_pressure;BME280_temperature;BME280_humidity;BME280_pressure;Samples;Min_cycle;Max_cycle;Signal;HPM_P1;HPM_P2
2022/11/27 00:01:24;;;;;;;14.10;6.10;;;7.70;99.90;;;;;;4992393;28;20053;-68
2022/11/27 00:03:49;;;;;;;10.98;5.43;;;7.70;99.90;;;;;;4992742;28;20026;-68
2022/11/27 00:06:18;;;;;;;13.30;6.75;;;7.70;99.90;;;;;;4992371;28;20125;-68
2022/11/27 00:08:45;;;;;;;12.98;6.47;;;7.70;99.90;;;;;;5008589;28;20390;-68
2022/11/27 00:11:16;;;;;;;17.75;5.82;;;7.70;99.90;;;;;;5008689;28;20033;-68
2022/11/27 00:13:42;;;;;;;16.90;6.63;;;7.60;99.90;;;;;;4992246;28;20037;-68
2022/11/27 00:16:08;;;;;;;14.73;6.70;;;7.60;99.90;;;;;;5008883;28;20034;-68
2022/11/27 00:18:34;;;;;;;14.20;5.95;;;7.50;99.90;;;;;;4993555;28;20022;-68
2022/11/27 00:21:05;;;;;;;15.07;6.70;;;7.40;99.90;;;;;;4993495;28;20061;-68
2022/11/27 00:23:32;;;;;;;12.35;6.82;;;7.40;99.90;;;;;;4992315;28;20022;-68
2022/11/27 00:25:57;;;;;;;12.98;6.72;;;7.40;99.90;;;;;;5008830;28;20122;-68
2022/11/27 00:28:23;;;;;;;14.75;7.03;;;7.40;99.90;;;;;;4993484;28;20077;-68
2022/11/27 00:30:49;;;;;;;18.00;6.10;;;7.40;99.90;;;;;;5010965;28;20049;-69
2022/11/27 00:33:14;;;;;;;23.10;6.65;;;7.30;99.90;;;;;;5012717;28;20022;-68
2022/11/27 00:35:40;;;;;;;14.05;6.30;;;7.30;99.90;;;;;;5013047;28;20037;-68
2022/11/27 00:38:06;;;;;;;13.18;5.90;;;7.20;99.90;;;;;;5012591;28;20058;-68
2022/11/27 00:40:31;;;;;;;19.88;6.82;;;7.30;99.90;;;;;;5012526;28;20081;-68
2022/11/27 00:42:57;;;;;;;11.77;5.72;;;7.50;99.90;;;;;;4997437;28;20033;-68
2022/11/27 00:45:22;;;;;;;19.15;6.15;;;7.60;99.90;;;;;;5012247;28;20520;-68
2022/11/27 00:47:48;;;;;;;19.98;6.65;;;7.70;99.90;;;;;;4996498;28;20064;-68
2022/11/27 00:50:14;;;;;;;11.23;6.10;;;7.40;99.90;;;;;;5012667;28;20090;-68
2022/11/27 00:52:39;;;;;;;16.50;6.25;;;7.40;99.90;;;;;;5012432;28;20026;-68
2022/11/27 00:55:05;;;;;;;14.60;6.25;;;7.40;99.90;;;;;;4996088;28;20022;-68
2022/11/27 00:57:31;;;;;;;14.88;6.35;;;7.40;99.90;;;;;;5012295;28;20026;-68
2022/11/27 00:59:56;;;;;;;17.50;7.05;;;7.30;99.90;;;;;;4997086;28;20026;-68
2022/11/27 01:02:22;;;;;;;18.13;7.68;;;7.10;99.90;;;;;;4995796;28;20026;-68
2022/11/27 01:04:48;;;;;;;18.85;7.93;;;6.90;99.90;;;;;;5012164;28;20022;-68
2022/11/27 01:07:13;;;;;;;16.77;6.38;;;6.90;99.90;;;;;;4997370;28;20085;-68
2022/11/27 01:09:39;;;;;;;19.98;6.50;;;7.00;99.90;;;;;;4997174;28;20037;-68
2022/11/27 01:12:05;;;;;;;18.25;6.88;;;6.80;99.90;;;;;;4996948;28;20022;-68
2022/11/27 01:14:31;;;;;;;13.00;5.95;;;6.90;99.90;;;;;;5011916;28;20077;-68
2022/11/27 01:16:56;;;;;;;17.85;6.90;;;7.10;99.90;;;;;;4995790;28;20034;-68
2022/11/27 01:19:22;;;;;;;15.30;6.78;;;7.10;99.90;;;;;;4995754;28;20066;-68
2022/11/27 01:21:47;;;;;;;19.58;6.32;;;7.10;99.90;;;;;;4996785;28;20022;-68
2022/11/27 01:24:14;;;;;;;12.30;5.75;;;7.10;99.90;;;;;;5012031;28;20054;-69
2022/11/27 01:26:41;;;;;;;9.25;5.53;;;7.00;99.90;;;;;;5012542;28;20034;-68
2022/11/27 01:29:07;;;;;;;13.55;6.50;;;7.00;99.90;;;;;;5011502;28;20022;-68
2022/11/27 01:31:33;;;;;;;14.80;6.10;;;6.90;99.90;;;;;;5011677;28;20057;-68
2022/11/27 01:34:02;;;;;;;18.52;6.40;;;6.90;99.90;;;;;;5011494;28;20029;-68
2022/11/27 01:36:28;;;;;;;13.25;6.25;;;6.90;99.90;;;;;;5011610;28;20031;-68
2022/11/27 01:38:54;;;;;;;13.50;6.35;;;6.80;99.90;;;;;;4995023;28;20050;-68
2022/11/27 01:41:26;;;;;;;18.80;6.32;;;6.80;99.90;;;;;;4995457;28;20022;-68
2022/11/27 01:43:58;;;;;;;15.80;6.22;;;6.80;99.90;;;;;;5011521;28;20033;-68
2022/11/27 01:46:35;;;;;;;14.65;5.22;;;6.90;99.90;;;;;;4996302;28;20030;-68
2022/11/27 01:49:07;;;;;;;16.33;5.15;;;6.90;99.90;;;;;;5011238;28;20031;-68
2022/11/27 01:51:33;;;;;;;12.27;5.47;;;6.80;99.90;;;;;;5011267;28;20037;-68
2022/11/27 01:53:59;;;;;;;12.50;5.80;;;6.80;99.90;;;;;;4996372;28;20034;-68
2022/11/27 01:56:26;;;;;;;11.18;4.78;;;6.90;99.90;;;;;;4996345;28;20034;-68
2022/11/27 01:58:52;;;;;;;13.68;5.25;;;7.00;99.90;;;;;;5011241;28;20041;-68
2022/11/27 02:01:17;;;;;;;10.98;4.45;;;7.00;99.90;;;;;;5034900;23;20129;-67
2022/11/27 02:03:43;;;;;;;13.93;5.22;;;7.10;99.90;;;;;;5017298;28;20032;-67
2022/11/27 02:06:12;;;;;;;16.92;6.47;;;7.00;99.90;;;;;;5016512;28;20030;-67
2022/11/27 02:08:38;;;;;;;12.48;5.10;;;7.00;99.90;;;;;;5014235;28;20026;-67
2022/11/27 02:11:28;;;;;;;11.02;5.75;;;7.10;99.90;;;;;;5015418;28;20063;-67
2022/11/27 02:14:08;;;;;;;15.68;5.07;;;7.20;99.90;;;;;;5015179;28;20030;-67
2022/11/27 02:17:06;;;;;;;12.25;5.55;;;7.10;99.90;;;;;;5015304;28;20053;-67
2022/11/27 02:20:10;;;;;;;15.30;6.10;;;7.00;99.90;;;;;;5007650;28;20102;-66
2022/11/27 02:23:01;;;;;;;10.52;5.18;;;7.10;99.90;;;;;;5013842;28;20021;-66
2022/11/27 02:25:50;;;;;;;16.58;6.38;;;6.90;99.90;;;;;;5013879;28;20132;-66
2022/11/27 02:28:41;;;;;;;10.80;4.88;;;6.80;99.90;;;;;;5013759;28;20029;-66
2022/11/27 02:31:42;;;;;;;9.82;6.10;;;6.90;99.90;;;;;;5015279;28;20042;-66
2022/11/27 02:34:31;;;;;;;10.18;5.32;;;6.80;99.90;;;;;;4974005;28;20043;-66
2022/11/27 02:37:08;;;;;;;12.82;5.82;;;6.70;99.90;;;;;;4946010;28;20064;-66
2022/11/27 02:40:03;;;;;;;19.10;5.97;;;6.70;99.90;;;;;;4973842;28;20031;-66
2022/11/27 02:42:35;;;;;;;13.00;5.65;;;6.80;99.90;;;;;;4961305;28;20051;-66
2022/11/27 02:45:10;;;;;;;10.15;5.10;;;6.80;99.90;;;;;;4973840;28;20066;-66
2022/11/27 02:47:39;;;;;;;18.52;5.82;;;6.80;99.90;;;;;;4958164;28;20023;-66
2022/11/27 02:50:10;;;;;;;11.35;5.90;;;6.80;99.90;;;;;;4957340;28;20039;-66
2022/11/27 02:52:37;;;;;;;16.15;5.35;;;6.90;99.90;;;;;;4956844;28;20105;-66
2022/11/27 02:55:07;;;;;;;14.43;5.13;;;6.80;99.90;;;;;;4973383;28;20034;-66
2022/11/27 02:57:35;;;;;;;9.10;4.60;;;6.90;99.90;;;;;;4957281;28;20142;-66
2022/11/27 03:00:01;;;;;;;14.13;5.25;;;6.90;99.90;;;;;;4957729;28;20031;-66
2022/11/27 03:02:34;;;;;;;12.77;5.43;;;6.90;99.90;;;;;;4973675;28;20033;-66
2022/11/27 03:05:03;;;;;;;13.35;5.32;;;6.90;99.90;;;;;;4973748;28;20062;-66
2022/11/27 03:07:48;;;;;;;18.77;5.78;;;6.90;99.90;;;;;;4956861;28;20030;-66
2022/11/27 03:10:29;;;;;;;12.82;5.60;;;6.90;99.90;;;;;;4967044;28;20092;-66
2022/11/27 03:12:54;;;;;;;16.33;5.35;;;6.90;99.90;;;;;;5014324;28;20429;-64
2022/11/27 03:15:23;;;;;;;18.60;5.75;;;6.90;99.90;;;;;;5012851;28;20028;-64
2022/11/27 03:18:20;;;;;;;13.68;5.80;;;7.00;99.90;;;;;;5012877;28;20050;-64
2022/11/27 03:20:48;;;;;;;11.15;5.10;;;7.00;99.90;;;;;;5012742;28;20022;-64
2022/11/27 03:23:14;;;;;;;12.35;4.70;;;7.00;99.90;;;;;;5013965;28;20076;-64
2022/11/27 03:25:40;;;;;;;11.57;5.00;;;6.90;99.90;;;;;;5013915;28;20026;-64
2022/11/27 03:28:09;;;;;;;11.10;5.13;;;6.90;99.90;;;;;;5014260;28;20118;-64
2022/11/27 03:30:34;;;;;;;14.88;5.88;;;6.80;99.90;;;;;;5012597;28;20042;-64
2022/11/27 03:33:00;;;;;;;11.57;4.72;;;6.90;99.90;;;;;;5012610;28;20037;-64
2022/11/27 03:35:27;;;;;;;13.05;5.75;;;6.90;99.90;;;;;;5012478;28;20370;-64
2022/11/27 03:37:53;;;;;;;11.38;4.85;;;7.00;99.90;;;;;;5012592;28;20029;-64
2022/11/27 03:40:23;;;;;;;14.13;5.55;;;6.90;99.90;;;;;;5014431;28;20074;-64
2022/11/27 03:43:06;;;;;;;14.55;5.70;;;7.00;99.90;;;;;;5013705;28;20113;-64
2022/11/27 03:46:03;;;;;;;12.23;6.03;;;6.90;99.90;;;;;;5012455;28;20026;-64
2022/11/27 03:48:37;;;;;;;10.18;5.40;;;6.70;99.90;;;;;;5012601;28;20080;-64
2022/11/27 03:51:40;;;;;;;14.82;5.43;;;6.60;99.90;;;;;;5013829;28;20036;-64
2022/11/27 03:54:20;;;;;;;11.73;5.07;;;6.50;99.90;;;;;;5012239;28;20038;-64
2022/11/27 03:56:58;;;;;;;12.10;5.07;;;6.50;99.90;;;;;;5012301;28;20114;-64
2022/11/27 03:59:30;;;;;;;17.02;6.20;;;6.50;99.90;;;;;;5012255;28;20032;-64
2022/11/27 04:01:55;;;;;;;9.35;5.32;;;6.50;99.90;;;;;;5013574;28;20060;-64
2022/11/27 04:04:21;;;;;;;13.07;5.88;;;6.50;99.90;;;;;;5011186;28;20026;-64
2022/11/27 04:06:47;;;;;;;13.50;5.85;;;6.50;99.90;;;;;;5012113;28;20374;-64
2022/11/27 04:09:12;;;;;;;17.90;5.85;;;6.50;99.90;;;;;;5012038;28;20041;-64
2022/11/27 04:11:38;;;;;;;15.10;6.00;;;6.50;99.90;;;;;;5012639;28;20060;-64
2022/11/27 04:14:03;;;;;;;15.95;6.40;;;6.50;99.90;;;;;;5012417;28;20068;-64
2022/11/27 04:16:29;;;;;;;14.95;6.22;;;6.50;99.90;;;;;;5012030;28;20029;-64
2022/11/27 04:18:55;;;;;;;14.90;6.18;;;6.50;99.90;;;;;;5013247;28;20076;-64
2022/11/27 04:21:20;;;;;;;17.25;6.47;;;6.40;99.90;;;;;;5011975;28;20029;-64
2022/11/27 04:23:46;;;;;;;14.65;6.18;;;6.40;99.90;;;;;;5013345;28;20044;-66
2022/11/27 04:26:11;;;;;;;15.05;5.63;;;6.40;99.90;;;;;;5013569;28;20022;-66
2022/11/27 04:28:37;;;;;;;13.50;6.32;;;6.30;99.90;;;;;;5015101;28;20489;-66
2022/11/27 04:31:03;;;;;;;15.88;5.95;;;6.40;99.90;;;;;;5013690;28;20022;-66
2022/11/27 04:33:28;;;;;;;17.55;6.93;;;6.40;99.90;;;;;;5015016;28;20033;-66
2022/11/27 04:35:54;;;;;;;17.05;6.47;;;6.50;99.90;;;;;;5014361;28;20057;-66
2022/11/27 04:38:20;;;;;;;13.52;6.30;;;6.50;99.90;;;;;;5013430;28;20029;-66
2022/11/27 04:40:46;;;;;;;17.45;6.20;;;6.40;99.90;;;;;;5013406;28;20029;-66
2022/11/27 04:43:12;;;;;;;17.27;5.45;;;6.50;99.90;;;;;;5014993;28;20022;-66
2022/11/27 04:45:37;;;;;;;17.45;5.60;;;6.50;99.90;;;;;;5014282;28;20022;-66
2022/11/27 04:48:03;;;;;;;16.65;6.05;;;6.50;99.90;;;;;;5013167;28;20064;-66
2022/11/27 04:50:29;;;;;;;15.50;6.63;;;6.50;99.90;;;;;;5013491;28;20030;-65
2022/11/27 04:52:55;;;;;;;14.90;6.93;;;6.50;99.90;;;;;;5013552;28;20096;-66
2022/11/27 04:55:21;;;;;;;20.08;8.05;;;6.50;99.90;;;;;;5013031;28;20033;-66
2022/11/27 04:57:47;;;;;;;21.58;6.80;;;6.50;99.90;;;;;;5013267;28;20022;-66
2022/11/27 05:00:13;;;;;;;15.55;7.00;;;6.50;99.90;;;;;;5014273;28;20131;-66
2022/11/27 05:02:39;;;;;;;12.25;6.75;;;6.60;99.90;;;;;;5014667;28;20018;-66
2022/11/27 05:05:04;;;;;;;18.20;6.82;;;6.60;99.90;;;;;;5014414;28;20516;-66
2022/11/27 05:07:30;;;;;;;20.73;7.28;;;6.60;99.90;;;;;;5013704;28;20076;-66
2022/11/27 05:09:56;;;;;;;14.40;7.00;;;6.60;99.90;;;;;;5013309;28;20033;-66
2022/11/27 05:12:21;;;;;;;19.00;7.35;;;6.70;99.90;;;;;;5013857;28;20037;-66
2022/11/27 05:14:47;;;;;;;21.75;7.18;;;6.80;99.90;;;;;;5013784;28;20030;-66
2022/11/27 05:17:12;;;;;;;19.23;7.45;;;6.70;99.90;;;;;;5016502;28;20029;-66
2022/11/27 05:19:38;;;;;;;24.33;7.07;;;6.70;99.90;;;;;;5017119;28;20025;-66
2022/11/27 05:22:04;;;;;;;18.00;6.50;;;6.80;99.90;;;;;;5017076;28;20053;-66
2022/11/27 05:24:30;;;;;;;21.42;7.50;;;6.80;99.90;;;;;;5018137;28;20123;-66
2022/11/27 05:26:56;;;;;;;30.65;7.82;;;6.80;99.90;;;;;;5017721;28;20029;-66
2022/11/27 05:29:22;;;;;;;20.35;7.28;;;6.70;99.90;;;;;;5019118;28;20076;-66
2022/11/27 05:31:48;;;;;;;18.00;7.40;;;6.80;99.90;;;;;;5017495;28;20030;-66
2022/11/27 05:34:14;;;;;;;21.98;8.00;;;6.70;99.90;;;;;;5018507;28;20100;-66
2022/11/27 05:36:40;;;;;;;19.85;7.38;;;6.70;99.90;;;;;;5018615;28;20458;-66
2022/11/27 05:39:07;;;;;;;22.55;8.07;;;6.80;99.90;;;;;;5016622;28;20145;-66
2022/11/27 05:41:34;;;;;;;22.65;8.27;;;6.80;99.90;;;;;;5017808;28;20014;-66
2022/11/27 05:44:02;;;;;;;20.38;7.25;;;6.80;99.90;;;;;;5016488;28;20052;-66
2022/11/27 05:46:28;;;;;;;22.85;8.75;;;6.80;99.90;;;;;;5018030;28;20029;-66
2022/11/27 05:48:54;;;;;;;16.10;7.45;;;6.70;99.90;;;;;;5017290;28;20057;-66
2022/11/27 05:51:19;;;;;;;20.77;8.25;;;6.70;99.90;;;;;;5016981;28;20041;-66
2022/11/27 05:53:45;;;;;;;15.20;7.72;;;6.80;99.90;;;;;;5016756;28;20076;-66
2022/11/27 05:56:14;;;;;;;18.92;7.85;;;6.70;99.90;;;;;;5016664;28;20045;-66
2022/11/27 05:58:40;;;;;;;18.40;7.25;;;6.70;99.90;;;;;;5017552;28;20092;-66
2022/11/27 06:01:07;;;;;;;16.75;7.05;;;6.70;99.90;;;;;;5016101;28;20034;-66
2022/11/27 06:03:33;;;;;;;24.85;7.78;;;6.70;99.90;;;;;;5016820;28;20026;-66
2022/11/27 06:06:08;;;;;;;17.65;8.20;;;6.60;99.90;;;;;;5016018;28;20116;-66
2022/11/27 06:08:36;;;;;;;20.50;7.55;;;6.70;99.90;;;;;;5015844;28;20122;-66
2022/11/27 06:11:16;;;;;;;21.05;7.80;;;6.50;99.90;;;;;;5016256;28;20030;-66
2022/11/27 06:13:42;;;;;;;24.13;7.97;;;6.50;99.90;;;;;;5015744;28;20021;-66
2022/11/27 06:16:11;;;;;;;20.77;7.78;;;6.40;99.90;;;;;;5016387;28;20109;-66
2022/11/27 06:18:37;;;;;;;21.52;6.55;;;6.50;99.90;;;;;;5016594;28;20045;-66
2022/11/27 06:21:08;;;;;;;14.60;6.30;;;6.50;99.90;;;;;;5016551;28;20501;-66
2022/11/27 06:23:34;;;;;;;22.67;7.85;;;6.70;99.90;;;;;;5015400;28;20425;-66
2022/11/27 06:26:13;;;;;;;15.60;7.22;;;6.70;99.90;;;;;;5015777;28;20037;-67
2022/11/27 06:28:39;;;;;;;21.48;7.93;;;6.30;99.90;;;;;;5014607;28;20034;-66
2022/11/27 06:31:14;;;;;;;15.57;6.63;;;6.30;99.90;;;;;;5015928;28;20026;-66
2022/11/27 06:33:40;;;;;;;23.85;8.15;;;6.40;99.90;;;;;;5015771;28;20037;-66
2022/11/27 06:36:06;;;;;;;20.83;7.63;;;6.40;99.90;;;;;;5015558;28;20018;-67
2022/11/27 06:38:33;;;;;;;20.75;7.43;;;6.60;99.90;;;;;;5016723;28;20018;-67
2022/11/27 06:41:07;;;;;;;18.83;7.25;;;6.70;99.90;;;;;;5015076;28;20022;-66
2022/11/27 06:43:33;;;;;;;16.92;8.40;;;6.80;99.90;;;;;;5016593;28;20120;-67
2022/11/27 06:46:00;;;;;;;19.05;7.47;;;6.90;99.90;;;;;;5016944;28;20022;-67
2022/11/27 06:48:26;;;;;;;19.92;7.97;;;6.80;99.90;;;;;;5016069;28;20026;-66
2022/11/27 06:50:51;;;;;;;20.63;7.88;;;6.50;99.90;;;;;;5016402;28;20037;-66
2022/11/27 06:53:17;;;;;;;15.13;7.20;;;6.30;99.90;;;;;;5016179;28;20481;-67
2022/11/27 06:55:42;;;;;;;18.15;7.45;;;6.40;99.90;;;;;;5015910;28;20022;-66
2022/11/27 06:58:08;;;;;;;19.92;7.45;;;6.40;99.90;;;;;;5014677;28;20026;-66
2022/11/27 07:00:34;;;;;;;15.75;6.82;;;6.50;99.90;;;;;;5015126;28;20034;-67
2022/11/27 07:02:59;;;;;;;19.40;7.03;;;6.70;99.90;;;;;;5015109;28;20025;-67
2022/11/27 07:05:25;;;;;;;18.77;7.40;;;6.90;99.90;;;;;;5015255;28;20038;-67
2022/11/27 07:07:50;;;;;;;18.42;7.82;;;6.80;99.90;;;;;;5015099;28;20034;-67
2022/11/27 07:10:16;;;;;;;18.02;7.38;;;6.70;99.90;;;;;;5014397;28;20026;-67
2022/11/27 07:12:41;;;;;;;14.52;6.18;;;6.80;99.90;;;;;;5015102;28;20026;-67
2022/11/27 07:15:07;;;;;;;16.67;7.40;;;6.70;99.90;;;;;;5014510;28;20041;-67
2022/11/27 07:17:33;;;;;;;16.15;6.65;;;6.80;99.90;;;;;;5015175;28;20046;-67
2022/11/27 07:19:59;;;;;;;17.75;6.53;;;6.70;99.90;;;;;;5015189;28;20076;-67
2022/11/27 07:22:24;;;;;;;13.50;7.00;;;6.80;99.90;;;;;;5016499;28;20025;-67
2022/11/27 07:24:50;;;;;;;15.20;7.18;;;6.80;99.90;;;;;;5016435;28;20105;-67
2022/11/27 07:27:15;;;;;;;13.82;6.72;;;6.60;99.90;;;;;;5015121;28;20030;-67
2022/11/27 07:29:41;;;;;;;23.40;7.03;;;6.30;99.90;;;;;;5014768;28;20093;-66
2022/11/27 07:32:06;;;;;;;17.27;7.20;;;6.30;99.90;;;;;;5014330;28;20022;-66
2022/11/27 07:34:32;;;;;;;16.85;6.68;;;6.40;99.90;;;;;;5014535;28;20025;-67
2022/11/27 07:36:57;;;;;;;15.95;6.18;;;6.40;99.90;;;;;;5015786;28;20030;-67
2022/11/27 07:39:23;;;;;;;18.95;6.55;;;6.60;99.90;;;;;;5014476;28;20064;-66
2022/11/27 07:41:49;;;;;;;22.35;7.65;;;6.60;99.90;;;;;;5015685;28;20113;-66
2022/11/27 07:44:14;;;;;;;15.23;6.30;;;6.60;99.90;;;;;;5015623;28;20030;-67
2022/11/27 07:46:40;;;;;;;17.23;7.55;;;6.50;99.90;;;;;;5015067;28;20529;-67
2022/11/27 07:49:05;;;;;;;18.30;6.35;;;6.50;99.90;;;;;;5014644;28;20026;-67
2022/11/27 07:51:31;;;;;;;20.63;7.18;;;6.60;99.90;;;;;;5014501;28;20021;-66
2022/11/27 07:53:58;;;;;;;17.77;6.93;;;6.70;99.90;;;;;;5014718;28;20026;-66
2022/11/27 07:56:23;;;;;;;13.30;6.35;;;6.70;99.90;;;;;;5015288;28;20026;-66
2022/11/27 07:58:49;;;;;;;24.27;7.07;;;6.70;99.90;;;;;;5013704;28;20087;-66
2022/11/27 08:01:16;;;;;;;20.55;7.18;;;6.60;99.90;;;;;;5013151;28;20061;-65
2022/11/27 08:03:43;;;;;;;16.73;6.78;;;6.70;99.90;;;;;;5013901;28;20045;-65
2022/11/27 08:06:16;;;;;;;15.63;7.20;;;6.60;99.90;;;;;;5012131;28;20025;-64
2022/11/27 08:08:41;;;;;;;21.38;7.30;;;6.00;99.90;;;;;;5013433;28;20037;-64
2022/11/27 08:11:14;;;;;;;18.77;7.07;;;5.80;99.90;;;;;;5012064;28;20018;-64
2022/11/27 08:13:40;;;;;;;18.83;7.28;;;5.80;99.90;;;;;;5013357;28;20026;-64
2022/11/27 08:16:06;;;;;;;18.17;6.93;;;5.60;99.90;;;;;;5012291;28;20026;-64
2022/11/27 08:18:31;;;;;;;15.00;6.63;;;5.60;99.90;;;;;;5013505;28;20029;-64
2022/11/27 08:20:59;;;;;;;18.50;7.03;;;5.70;99.90;;;;;;5012014;28;20033;-64
2022/11/27 08:23:24;;;;;;;13.98;6.30;;;5.80;99.90;;;;;;5013202;28;20025;-65
2022/11/27 08:25:50;;;;;;;14.55;5.90;;;6.00;99.90;;;;;;5013158;28;20026;-64
2022/11/27 08:28:15;;;;;;;13.20;6.53;;;6.30;99.90;;;;;;5013272;28;20058;-64
2022/11/27 08:30:41;;;;;;;16.30;6.47;;;6.40;99.90;;;;;;5012439;28;20370;-65
2022/11/27 08:33:06;;;;;;;14.63;6.32;;;6.40;99.90;;;;;;5013244;28;20030;-65
2022/11/27 08:35:32;;;;;;;14.80;6.60;;;6.40;99.90;;;;;;5012139;28;20026;-65
2022/11/27 08:37:58;;;;;;;16.30;6.53;;;6.40;99.90;;;;;;5011827;28;20018;-65
2022/11/27 08:40:23;;;;;;;16.35;6.28;;;6.40;99.90;;;;;;5011803;28;20018;-65
2022/11/27 08:42:49;;;;;;;14.63;6.65;;;6.40;99.90;;;;;;5011810;28;20067;-65
2022/11/27 08:45:14;;;;;;;13.95;6.65;;;6.60;99.90;;;;;;5011757;28;20220;-65
2022/11/27 08:47:42;;;;;;;12.82;5.72;;;6.60;99.90;;;;;;5012132;28;20389;-65
2022/11/27 08:50:08;;;;;;;15.98;6.45;;;6.60;99.90;;;;;;5012933;28;20033;-64
2022/11/27 08:52:33;;;;;;;14.55;6.43;;;6.70;99.90;;;;;;5015636;28;20022;-65
2022/11/27 08:54:59;;;;;;;17.83;6.53;;;6.60;99.90;;;;;;5015821;28;20389;-65
2022/11/27 08:57:25;;;;;;;13.07;6.15;;;6.50;99.90;;;;;;5016773;28;20180;-65
2022/11/27 08:59:50;;;;;;;14.18;6.20;;;6.80;99.90;;;;;;5015728;28;20069;-65
2022/11/27 09:02:16;;;;;;;17.98;6.00;;;6.80;99.90;;;;;;5016823;28;20050;-65
2022/11/27 09:04:41;;;;;;;16.83;5.82;;;6.80;99.90;;;;;;5015697;28;20033;-65
2022/11/27 09:07:07;;;;;;;11.98;6.05;;;6.90;99.90;;;;;;5015390;28;20485;-65
2022/11/27 09:09:33;;;;;;;11.05;5.72;;;7.10;99.90;;;;;;5015288;28;20025;-65
2022/11/27 09:11:58;;;;;;;12.75;5.68;;;7.20;99.90;;;;;;5016424;28;20061;-65
2022/11/27 09:14:24;;;;;;;15.65;6.30;;;7.20;99.90;;;;;;5016393;28;20055;-65
2022/11/27 09:16:50;;;;;;;13.43;6.65;;;7.20;99.90;;;;;;5015149;28;20022;-65
2022/11/27 09:19:16;;;;;;;17.08;6.65;;;7.20;99.90;;;;;;5016450;28;20053;-65
2022/11/27 09:21:41;;;;;;;12.32;5.43;;;7.20;99.90;;;;;;5015126;28;20018;-65
2022/11/27 09:24:08;;;;;;;14.68;5.45;;;7.20;99.90;;;;;;5015203;28;20073;-65
2022/11/27 09:26:33;;;;;;;14.65;5.15;;;7.30;99.90;;;;;;5016830;28;20030;-65
2022/11/27 09:28:59;;;;;;;16.42;6.68;;;7.40;99.90;;;;;;5015257;28;20049;-65
2022/11/27 09:31:25;;;;;;;13.27;6.13;;;7.20;99.90;;;;;;5014938;28;20131;-64
2022/11/27 09:33:50;;;;;;;13.07;6.30;;;7.10;99.90;;;;;;5016065;28;20026;-64
2022/11/27 09:36:22;;;;;;;11.93;5.90;;;7.20;99.90;;;;;;5016094;28;20049;-64
2022/11/27 09:38:48;;;;;;;15.98;6.18;;;7.30;99.90;;;;;;5014883;28;20018;-64
2022/11/27 09:41:40;;;;;;;10.18;5.57;;;7.40;99.90;;;;;;5016319;28;20032;-64
2022/11/27 09:44:14;;;;;;;;;;;7.50;99.90;;;;;;5015980;28;20130;-64
2022/11/27 09:46:41;;;;;;;10.90;5.38;;;7.60;99.90;;;;;;5016140;28;20271;-64
2022/11/27 09:49:12;;;;;;;16.50;5.82;;;7.70;99.90;;;;;;5014866;28;20026;-64
2022/11/27 09:51:52;;;;;;;9.90;5.28;;;7.60;99.90;;;;;;5014630;28;20026;-65
2022/11/27 09:54:25;;;;;;;13.50;5.80;;;7.60;99.90;;;;;;5015973;28;20033;-65
2022/11/27 09:56:53;;;;;;;12.80;5.30;;;7.50;99.90;;;;;;5015296;28;20045;-64
2022/11/27 09:59:23;;;;;;;12.15;4.97;;;7.40;99.90;;;;;;5014586;28;20018;-65
2022/11/27 10:01:49;;;;;;;8.75;5.10;;;7.50;99.90;;;;;;5016042;28;20034;-64
2022/11/27 10:04:17;;;;;;;14.15;5.28;;;7.60;99.90;;;;;;5014408;28;20034;-64
2022/11/27 10:07:12;;;;;;;10.88;4.72;;;7.70;99.90;;;;;;5015245;28;20030;-65
2022/11/27 10:09:41;;;;;;;11.95;5.63;;;7.90;99.90;;;;;;5015015;28;20026;-65
2022/11/27 10:12:18;;;;;;;10.93;5.47;;;7.90;99.90;;;;;;5014181;28;20144;-65
2022/11/27 10:15:08;;;;;;;13.18;5.60;;;8.00;99.90;;;;;;5015418;28;20037;-65
2022/11/27 10:18:00;;;;;;;11.07;5.38;;;8.10;99.90;;;;;;4968103;28;20141;-65
2022/11/27 10:20:46;;;;;;;11.02;4.97;;;8.10;99.90;;;;;;5014886;28;20175;-65
2022/11/27 10:23:40;;;;;;;12.05;4.72;;;8.20;99.90;;;;;;5015584;28;20082;-65
2022/11/27 10:26:40;;;;;;;12.13;5.22;;;8.40;99.90;;;;;;5013999;28;20034;-66
2022/11/27 10:29:19;;;;;;;11.85;5.43;;;8.70;99.90;;;;;;4919873;29;20043;-65
2022/11/27 10:31:57;;;;;;;14.35;5.15;;;8.80;99.90;;;;;;4919902;29;20075;-65
2022/11/27 10:34:43;;;;;;;19.23;7.88;;;8.40;99.90;;;;;;4935703;29;20103;-64
2022/11/27 10:37:35;;;;;;;9.70;4.47;;;8.00;99.90;;;;;;4935552;29;20039;-64
2022/11/27 10:40:10;;;;;;;9.88;4.95;;;8.00;99.90;;;;;;4919588;29;20036;-64
2022/11/27 10:42:43;;;;;;;8.70;4.22;;;7.70;99.90;;;;;;4935427;29;20047;-65
2022/11/27 10:45:36;;;;;;;9.65;4.80;;;7.70;99.90;;;;;;4919447;29;20507;-65
2022/11/27 10:48:02;;;;;;;9.05;4.53;;;8.00;99.90;;;;;;4935655;29;20027;-65
2022/11/27 10:50:28;;;;;;;10.15;4.53;;;8.10;99.90;;;;;;4935204;29;20035;-65
2022/11/27 10:53:01;;;;;;;11.00;4.18;;;7.90;99.90;;;;;;4920163;29;20083;-65
2022/11/27 10:55:33;;;;;;;8.35;4.72;;;7.90;99.90;;;;;;4919211;29;20027;-65
2022/11/27 10:58:33;;;;;;;9.10;4.60;;;7.90;99.90;;;;;;4935386;29;20044;-64
2022/11/27 11:01:10;;;;;;;13.25;4.50;;;7.60;99.90;;;;;;4918766;29;20032;-65
2022/11/27 11:03:36;;;;;;;9.70;4.15;;;7.70;99.90;;;;;;4924906;28;20079;-64
2022/11/27 11:06:25;;;;;;;10.23;3.97;;;7.60;99.90;;;;;;5014016;28;20457;-65
2022/11/27 11:09:11;;;;;;;7.50;3.33;;;7.50;99.90;;;;;;5004049;28;20048;-65
2022/11/27 11:11:38;;;;;;;7.15;3.85;;;7.60;99.90;;;;;;5014340;28;20389;-65
2022/11/27 11:14:15;;;;;;;9.02;4.15;;;7.60;99.90;;;;;;5012310;28;20088;-65
2022/11/27 11:16:43;;;;;;;8.10;3.58;;;7.70;99.90;;;;;;5013889;28;20018;-65
2022/11/27 11:19:30;;;;;;;13.05;4.20;;;7.80;99.90;;;;;;5014195;28;20014;-65
2022/11/27 11:21:56;;;;;;;6.45;3.42;;;7.90;99.90;;;;;;5014126;28;20018;-65
2022/11/27 11:24:30;;;;;;;9.50;3.78;;;8.00;99.90;;;;;;5012973;28;20026;-65
2022/11/27 11:27:05;;;;;;;8.30;3.45;;;8.10;99.90;;;;;;5014148;28;20061;-65
2022/11/27 11:29:36;;;;;;;12.27;5.22;;;8.20;99.90;;;;;;5014072;28;20026;-65
2022/11/27 11:32:13;;;;;;;12.80;4.45;;;8.40;99.90;;;;;;5013601;28;20034;-65
2022/11/27 11:34:50;;;;;;;8.18;3.90;;;8.50;99.90;;;;;;5014014;28;20030;-65
2022/11/27 11:37:32;;;;;;;6.65;3.38;;;8.60;99.90;;;;;;5012626;28;20057;-65
2022/11/27 11:40:18;;;;;;;11.88;3.90;;;8.60;99.90;;;;;;5012501;28;20022;-65
2022/11/27 11:42:54;;;;;;;11.57;4.22;;;8.70;99.90;;;;;;4996007;28;20030;-65
2022/11/27 11:45:21;;;;;;;9.30;4.38;;;8.70;99.90;;;;;;5013774;28;20054;-65
2022/11/27 11:47:52;;;;;;;7.22;3.70;;;8.70;99.90;;;;;;5013729;28;20032;-65
2022/11/27 11:50:35;;;;;;;9.07;4.45;;;8.50;99.90;;;;;;5012381;28;20033;-65
2022/11/27 11:53:30;;;;;;;7.95;3.80;;;8.40;99.90;;;;;;5013248;28;20029;-65
2022/11/27 11:56:05;;;;;;;6.50;3.33;;;8.30;99.90;;;;;;5013803;28;20030;-65
2022/11/27 11:58:52;;;;;;;6.55;3.28;;;8.40;99.90;;;;;;5013664;28;20025;-65
2022/11/27 12:01:53;;;;;;;7.15;3.53;;;8.40;99.90;;;;;;5012148;28;20037;-65
2022/11/27 12:04:24;;;;;;;7.40;3.80;;;8.40;99.90;;;;;;5012356;28;20037;-65
2022/11/27 12:07:05;;;;;;;8.35;4.03;;;8.50;99.90;;;;;;5013477;28;20057;-65
2022/11/27 12:09:53;;;;;;;10.20;4.38;;;8.60;99.90;;;;;;5013712;28;20030;-65
2022/11/27 12:12:25;;;;;;;9.57;4.32;;;8.80;99.90;;;;;;5003172;28;20042;-65
2022/11/27 12:15:01;;;;;;;12.48;4.35;;;8.90;99.90;;;;;;5011969;28;20030;-65
2022/11/27 12:17:40;;;;;;;8.10;3.63;;;8.80;99.90;;;;;;5012923;28;20034;-65
2022/11/27 12:20:30;;;;;;;14.55;7.10;;;8.80;99.90;;;;;;5013192;28;20026;-65
2022/11/27 12:23:27;;;;;;;10.57;4.55;;;8.60;99.90;;;;;;5013274;28;20018;-65
2022/11/27 12:25:58;;;;;;;7.75;3.60;;;8.80;99.90;;;;;;5014369;28;20117;-65
2022/11/27 12:28:40;;;;;;;10.55;3.47;;;9.00;99.90;;;;;;5016377;28;20026;-65
2022/11/27 12:31:15;;;;;;;;;;;9.10;99.90;;;;;;5016524;28;20042;-65
2022/11/27 12:34:09;;;;;;;8.07;3.88;;;9.10;99.90;;;;;;5015964;28;19951;-65
2022/11/27 12:36:38;;;;;;;11.90;4.57;;;9.10;99.90;;;;;;5016067;28;20032;-65
2022/11/27 12:39:16;;;;;;;9.05;3.92;;;9.10;99.90;;;;;;5015831;28;20061;-65
2022/11/27 12:41:56;;;;;;;8.18;3.95;;;8.90;99.90;;;;;;5015727;28;20022;-65
2022/11/27 12:44:31;;;;;;;7.22;4.22;;;8.50;99.90;;;;;;5017124;28;20426;-65
2022/11/27 12:47:15;;;;;;;6.18;4.10;;;8.50;99.90;;;;;;5015810;28;20030;-65
2022/11/27 12:49:51;;;;;;;14.48;4.60;;;8.30;99.90;;;;;;5015698;28;20076;-65
2022/11/27 12:52:20;;;;;;;9.10;4.35;;;8.30;99.90;;;;;;5015675;28;20026;-65
2022/11/27 12:54:52;;;;;;;7.13;3.72;;;8.20;99.90;;;;;;5016410;28;20029;-65
2022/11/27 12:57:49;;;;;;;9.80;4.30;;;8.30;99.90;;;;;;5017138;28;20057;-65
2022/11/27 13:00:19;;;;;;;8.68;3.97;;;8.70;99.90;;;;;;4937054;29;20040;-65
2022/11/27 13:03:13;;;;;;;8.35;3.75;;;9.10;99.90;;;;;;4937260;29;20020;-65
2022/11/27 13:05:57;;;;;;;6.50;3.53;;;9.20;99.90;;;;;;4922049;29;20040;-65
2022/11/27 13:08:46;;;;;;;7.95;3.70;;;9.30;99.90;;;;;;4921784;29;20128;-65